Solamere
, Park City
Last Weather Update:01/01/2012 2:00:00 PM
Date
ETo
ETc
Rain
Irrigation
Req
Temp
Max
Temp
Min
Temp
Avg
Avg RH
Avg Wind
Avg Solar
inches
inches
incehs
inches
F
F
F
%
%
watts/m2
11/01/2011 0.09" 0.00" 0.04" -0.03" 59.8° 30.2° 43.1° 93.6% 2.5 MPH 111.5w/m2
11/02/2011 0.04" 0.00" 0.01" -0.06" 30.3° 12.0° 24.8° 58.2% 1.6 MPH 412.3w/m2
11/02/2011 0.37" 0.00" 0.00" -0.06" 46.0° 29.4° 38.4° 38.4% 7.5 MPH 143.0w/m2
11/02/2011 0.37" 0.00" 0.00" -0.06" 46.0° 29.4° 38.4° 38.4% 7.5 MPH 143.0w/m2
11/02/2011 0.37" 0.00" 0.00" -0.06" 46.0° 29.4° 38.4° 38.4% 7.5 MPH 143.0w/m2
11/02/2011 0.37" 0.00" 0.00" -0.06" 46.0° 29.4° 38.4° 38.4% 7.5 MPH 143.0w/m2
11/02/2011 0.37" 0.00" 0.00" -0.06" 46.0° 29.4° 38.4° 38.4% 7.5 MPH 143.0w/m2
11/02/2011 0.37" 0.00" 0.00" -0.06" 46.0° 29.4° 38.4° 38.4% 7.5 MPH 143.0w/m2
11/02/2011 0.37" 0.00" 0.00" -0.06" 46.0° 29.4° 38.4° 38.4% 7.5 MPH 143.0w/m2
11/02/2011 0.37" 0.00" 0.00" -0.06" 46.0° 29.4° 38.4° 38.4% 7.5 MPH 143.0w/m2
11/02/2011 0.37" 0.00" 0.00" -0.06" 46.0° 29.4° 38.4° 38.4% 7.5 MPH 143.0w/m2
11/02/2011 0.37" 0.00" 0.00" -0.06" 46.0° 29.4° 38.4° 38.4% 7.5 MPH 143.0w/m2
11/02/2011 0.37" 0.00" 0.00" -0.06" 46.0° 29.4° 38.4° 38.4% 7.5 MPH 143.0w/m2
11/02/2011 0.37" 0.00" 0.00" -0.06" 46.0° 29.4° 38.4° 38.4% 7.5 MPH 143.0w/m2
11/02/2011 0.37" 0.00" 0.00" -0.06" 46.0° 29.4° 38.4° 38.4% 7.5 MPH 143.0w/m2
11/02/2011 0.37" 0.00" 0.00" -0.06" 46.0° 29.4° 38.4° 38.4% 7.5 MPH 143.0w/m2
11/02/2011 0.37" 0.00" 0.00" -0.06" 46.0° 29.4° 38.4° 38.4% 7.5 MPH 143.0w/m2
11/02/2011 0.37" 0.00" 0.00" -0.06" 46.0° 29.4° 38.4° 38.4% 7.5 MPH 143.0w/m2
11/02/2011 0.37" 0.00" 0.00" -0.06" 46.0° 29.4° 38.4° 38.4% 7.5 MPH 143.0w/m2
11/02/2011 0.37" 0.00" 0.00" -0.06" 46.0° 29.4° 38.4° 38.4% 7.5 MPH 143.0w/m2
11/02/2011 0.37" 0.00" 0.00" -0.06" 46.0° 29.4° 38.4° 38.4% 7.5 MPH 143.0w/m2
11/02/2011 0.37" 0.00" 0.00" -0.06" 46.0° 29.4° 38.4° 38.4% 7.5 MPH 143.0w/m2
11/02/2011 0.37" 0.00" 0.00" -0.06" 46.0° 29.4° 38.4° 38.4% 7.5 MPH 143.0w/m2
11/02/2011 0.37" 0.00" 0.00" -0.06" 46.0° 29.4° 38.4° 38.4% 7.5 MPH 143.0w/m2
11/02/2011 0.37" 0.00" 0.00" -0.06" 46.0° 29.4° 38.4° 38.4% 7.5 MPH 143.0w/m2
11/02/2011 0.37" 0.00" 0.00" -0.06" 46.0° 29.4° 38.4° 38.4% 7.5 MPH 143.0w/m2
11/02/2011 0.37" 0.00" 0.00" -0.06" 46.0° 29.4° 38.4° 38.4% 7.5 MPH 143.0w/m2
11/02/2011 0.37" 0.00" 0.00" -0.06" 46.0° 29.4° 38.4° 38.4% 7.5 MPH 143.0w/m2
11/02/2011 0.48" 0.00" 0.00" -0.06" 46.0° 29.4° 38.4° 38.4% 7.5 MPH 143.0w/m2
11/02/2011 0.48" 0.00" 0.00" -0.06" 46.0° 29.4° 38.4° 38.4% 7.5 MPH 143.0w/m2
11/02/2011 0.48" 0.00" 0.00" -0.06" 46.0° 29.4° 38.4° 38.4% 7.5 MPH 143.0w/m2
11/02/2011 0.48" 0.00" 0.00" -0.06" 46.0° 29.4° 38.4° 38.4% 7.5 MPH 143.0w/m2
11/02/2011 0.48" 0.00" 0.00" -0.06" 46.0° 29.4° 38.4° 38.4% 7.5 MPH 143.0w/m2
11/02/2011 0.48" 0.00" 0.00" -0.06" 46.0° 29.4° 38.4° 38.4% 7.5 MPH 143.0w/m2
11/02/2011 0.48" 0.00" 0.00" -0.06" 46.0° 29.4° 38.4° 38.4% 7.5 MPH 143.0w/m2
11/02/2011 0.48" 0.00" 0.00" -0.06" 46.0° 29.4° 38.4° 38.4% 7.5 MPH 143.0w/m2
11/02/2011 0.48" 0.00" 0.00" -0.06" 46.0° 29.4° 38.4° 38.4% 7.5 MPH 143.0w/m2
11/02/2011 0.48" 0.00" 0.00" -0.06" 46.0° 29.4° 38.4° 38.4% 7.5 MPH 143.0w/m2
11/02/2011 0.48" 0.00" 0.00" -0.06" 46.0° 29.4° 38.4° 38.4% 7.5 MPH 143.0w/m2
11/02/2011 0.48" 0.00" 0.00" -0.06" 46.0° 29.4° 38.4° 38.4% 7.5 MPH 143.0w/m2
11/02/2011 0.48" 0.00" 0.00" -0.06" 46.0° 29.4° 38.4° 38.4% 7.5 MPH 143.0w/m2
11/02/2011 0.48" 0.00" 0.00" -0.06" 46.0° 29.4° 38.4° 38.4% 7.5 MPH 143.0w/m2
11/02/2011 0.48" 0.00" 0.00" -0.06" 46.0° 29.4° 38.4° 38.4% 7.5 MPH 143.0w/m2
11/02/2011 0.48" 0.00" 0.00" -0.06" 46.0° 29.4° 38.4° 38.4% 7.5 MPH 143.0w/m2
11/02/2011 0.48" 0.00" 0.00" -0.06" 46.0° 29.4° 38.4° 38.4% 7.5 MPH 143.0w/m2
11/02/2011 0.48" 0.00" 0.00" -0.06" 46.0° 29.4° 38.4° 38.4% 7.5 MPH 143.0w/m2
11/02/2011 0.48" 0.00" 0.00" -0.06" 46.0° 29.4° 38.4° 38.4% 7.5 MPH 143.0w/m2
11/02/2011 0.48" 0.00" 0.00" -0.06" 46.0° 29.4° 38.4° 38.4% 7.5 MPH 143.0w/m2
11/02/2011 0.48" 0.00" 0.00" -0.06" 46.0° 29.4° 38.4° 38.4% 7.5 MPH 143.0w/m2
11/02/2011 0.48" 0.00" 0.00" -0.06" 46.0° 29.4° 38.4° 38.4% 7.5 MPH 143.0w/m2
11/02/2011 0.48" 0.00" 0.00" -0.06" 46.0° 29.4° 38.4° 38.4% 7.5 MPH 143.0w/m2
11/02/2011 0.48" 0.00" 0.00" -0.06" 46.0° 29.4° 38.4° 38.4% 7.5 MPH 143.0w/m2
11/02/2011 0.48" 0.00" 0.00" -0.06" 46.0° 29.4° 38.4° 38.4% 7.5 MPH 143.0w/m2
11/02/2011 0.48" 0.00" 0.00" -0.06" 46.0° 29.4° 38.4° 38.4% 7.5 MPH 143.0w/m2
11/02/2011 0.58" 0.00" 0.00" -0.06" 46.0° 29.4° 38.4° 38.4% 7.5 MPH 143.0w/m2
11/02/2011 0.58" 0.00" 0.00" -0.06" 46.0° 29.4° 38.4° 38.4% 7.5 MPH 143.0w/m2
11/02/2011 0.58" 0.00" 0.00" -0.06" 46.0° 29.4° 38.4° 38.4% 7.5 MPH 143.0w/m2
11/02/2011 0.58" 0.00" 0.00" -0.06" 46.0° 29.4° 38.4° 38.4% 7.5 MPH 143.0w/m2
11/02/2011 0.58" 0.00" 0.00" -0.06" 46.0° 29.4° 38.4° 38.4% 7.5 MPH 143.0w/m2
11/02/2011 0.58" 0.00" 0.00" -0.06" 46.0° 29.4° 38.4° 38.4% 7.5 MPH 143.0w/m2
11/02/2011 0.69" 0.00" 0.00" -0.06" 46.0° 29.4° 38.4° 38.4% 7.5 MPH 143.0w/m2
11/02/2011 0.69" 0.00" 0.00" -0.06" 46.0° 29.4° 38.4° 38.4% 7.5 MPH 143.0w/m2
11/03/2011 0.20" 0.00" 0.00" 0.00" 49.0° 20.7° 33.4° 90.2% 3.8 MPH 102.7w/m2
11/08/2011 0.06" 0.00" 0.00" 0.00" 27.6° 24.2° 26.0° 46.8% 2.1 MPH 46.8w/m2
11/10/2011 0.09" 0.00" 0.01" -0.01" 48.1° 18.4° 38.5° 84.9% 5.3 MPH 102.8w/m2
11/11/2011 0.02" 0.00" 0.13" -0.10" 37.6° 25.3° 30.1° 94.3% 1.8 MPH 34.8w/m2
11/13/2011 0.10" 0.00" 0.00" 0.00" 194.5° 18.8° 34.2° 49.4% 2.9 MPH 140.9w/m2
11/16/2011 0.11" 0.00" 0.00" 0.00" 49.4° F 41.1° 50.7% 6.5 MPH 118.5w/m2
11/21/2011 0.07" 0.00" 0.02" -0.02" 44.8° 28.6° 36.5° 41.8% 3.8 MPH 105.6w/m2
11/22/2011 0.10" 0.00" 0.00" 0.00" 52.7° 35.3° 41.2° 47.0% 5.0 MPH 109.1w/m2
11/23/2011 0.06" 0.00" 0.00" 0.00" 87.5° 22.8° 26.1° 83.6% 0.3 MPH 51.9w/m2
11/26/2011 0.09" 0.00" 0.00" 0.00" 26.4° 25.6° 26.0° 69.4% 0.2 MPH 53.5w/m2
11/28/2011 0.08" 0.00" 0.00" 0.00" 49.5° 22.4° 35.1° 65.4% 1.8 MPH 121.5w/m2
11/29/2011 0.06" 0.00" 0.00" 0.00" 40.9° 22.7° 28.6° 54.4% 6.1 MPH 98.5w/m2
Totals: 28.04" 0.00" 0.21" -3.58" 194.5° F 37.4° 43.7% 6.7 MPH 137.7w/m2